createdAt,value
2018-03-27T00:00:49.122Z,32.63
2018-03-27T00:03:17.740Z,30.40
2018-03-27T00:05:45.322Z,28.87
2018-03-27T00:08:13.289Z,30.87
2018-03-27T00:10:40.863Z,29.37
2018-03-27T00:13:08.796Z,30.00
2018-03-27T00:15:36.434Z,29.77
2018-03-27T00:18:04.743Z,30.40
2018-03-27T00:20:32.368Z,29.33
2018-03-27T00:22:59.979Z,27.17
2018-03-27T00:25:27.603Z,31.10
2018-03-27T00:28:07.060Z,34.03
2018-03-27T00:30:46.460Z,36.87
2018-03-27T00:33:25.834Z,34.40
2018-03-27T00:36:05.383Z,46.93
2018-03-27T00:38:45.375Z,45.77
2018-03-27T00:44:14.848Z,45.90
2018-03-27T00:46:42.507Z,52.70
2018-03-27T00:49:10.189Z,48.63
2018-03-27T00:51:37.935Z,48.00
2018-03-27T00:54:05.663Z,54.73
2018-03-27T00:56:34.128Z,74.20
2018-03-27T00:59:02.042Z,67.03
2018-03-27T01:01:30.132Z,59.80
2018-03-27T01:03:57.927Z,63.87
2018-03-27T01:06:25.571Z,61.13
2018-03-27T01:08:53.246Z,60.27
2018-03-27T01:11:20.892Z,54.57
2018-03-27T01:13:48.623Z,55.20
2018-03-27T01:16:16.637Z,51.13
2018-03-27T01:18:44.488Z,54.47
2018-03-27T01:21:13.151Z,44.83
2018-03-27T01:23:40.809Z,41.93
2018-03-27T01:26:08.466Z,35.97
2018-03-27T01:28:36.286Z,36.63
2018-03-27T01:31:04.028Z,33.97
2018-03-27T01:33:32.453Z,35.93
2018-03-27T01:36:00.542Z,34.23
2018-03-27T01:38:28.195Z,41.60
2018-03-27T01:40:56.406Z,34.20
2018-03-27T01:43:24.043Z,37.90
2018-03-27T01:45:51.642Z,32.70
2018-03-27T01:48:19.275Z,34.50
2018-03-27T01:50:46.979Z,33.80
2018-03-27T01:53:14.657Z,30.57
2018-03-27T01:55:43.026Z,32.83
2018-03-27T01:58:11.673Z,31.00
2018-03-27T02:00:39.426Z,30.53
2018-03-27T02:03:07.867Z,31.70
2018-03-27T02:05:35.568Z,29.50
2018-03-27T02:08:03.294Z,27.87
2018-03-27T02:10:31.341Z,28.77
2018-03-27T02:13:05.753Z,29.50
2018-03-27T02:15:39.739Z,31.43
2018-03-27T02:18:13.044Z,32.77
2018-03-27T02:20:46.187Z,34.10
2018-03-27T02:23:19.441Z,36.07
2018-03-27T02:25:47.798Z,33.87
2018-03-27T02:28:15.405Z,33.60
2018-03-27T02:30:42.998Z,34.37
2018-03-27T02:33:10.604Z,31.70
2018-03-27T02:35:38.941Z,31.10
2018-03-27T02:38:06.968Z,31.67
2018-03-27T02:40:34.563Z,30.43
2018-03-27T02:43:02.420Z,31.97
2018-03-27T02:45:30.920Z,30.20
2018-03-27T02:47:58.523Z,31.70
2018-03-27T02:50:26.149Z,31.57
2018-03-27T02:52:53.731Z,29.17
2018-03-27T02:55:21.995Z,27.50
2018-03-27T02:57:49.580Z,29.03
2018-03-27T03:00:17.508Z,28.93
2018-03-27T03:02:45.090Z,31.27
2018-03-27T03:05:12.895Z,30.27
2018-03-27T03:07:40.481Z,32.57
2018-03-27T03:10:29.180Z,30.77
2018-03-27T03:12:57.239Z,33.13
2018-03-27T03:15:24.815Z,32.13
2018-03-27T03:17:53.579Z,28.83
2018-03-27T03:20:21.227Z,29.87
2018-03-27T03:22:48.798Z,30.50
2018-03-27T03:25:16.448Z,29.47
2018-03-27T03:27:44.009Z,32.33
2018-03-27T03:30:11.626Z,33.60
2018-03-27T03:32:39.230Z,31.07
2018-03-27T03:35:06.833Z,31.67
2018-03-27T03:37:35.198Z,32.33
2018-03-27T03:40:21.149Z,31.17
2018-03-27T03:42:49.100Z,30.43
2018-03-27T03:45:16.686Z,34.07
2018-03-27T03:47:44.267Z,32.40
2018-03-27T03:50:13.035Z,30.77
2018-03-27T03:52:41.176Z,30.70
2018-03-27T03:55:09.031Z,30.40
2018-03-27T03:57:36.591Z,31.73
2018-03-27T04:00:04.452Z,33.83
2018-03-27T04:02:32.076Z,34.03
2018-03-27T04:04:59.658Z,32.60
2018-03-27T04:07:28.509Z,31.03
2018-03-27T04:09:56.107Z,30.70
2018-03-27T04:12:24.787Z,31.50
2018-03-27T04:14:53.679Z,30.37
2018-03-27T04:17:22.022Z,33.53
2018-03-27T04:19:49.999Z,36.23
2018-03-27T04:22:17.620Z,36.77
2018-03-27T04:24:45.184Z,34.53
2018-03-27T04:27:12.767Z,36.53
2018-03-27T04:29:40.321Z,35.00
2018-03-27T04:32:07.916Z,33.50
2018-03-27T04:34:36.262Z,33.73
2018-03-27T04:37:04.257Z,35.10
2018-03-27T04:39:31.831Z,35.10
2018-03-27T04:42:00.558Z,36.37
2018-03-27T04:44:28.154Z,34.77
2018-03-27T04:46:55.713Z,36.37
2018-03-27T04:49:23.348Z,37.73
2018-03-27T04:51:50.942Z,38.47
2018-03-27T04:54:18.549Z,39.73
2018-03-27T04:56:46.124Z,38.13
2018-03-27T04:59:13.752Z,39.00
2018-03-27T05:01:42.115Z,39.17
2018-03-27T05:04:10.840Z,37.33
2018-03-27T05:06:38.392Z,37.80
2018-03-27T05:09:06.474Z,39.87
2018-03-27T05:11:34.084Z,38.60
2018-03-27T05:14:01.826Z,36.50
2018-03-27T05:16:29.441Z,35.40
2018-03-27T05:18:57.014Z,37.50
2018-03-27T05:21:24.649Z,37.57
2018-03-27T05:23:53.022Z,36.10
2018-03-27T05:26:21.800Z,39.07
2018-03-27T05:28:50.199Z,38.00
2018-03-27T05:31:17.791Z,39.47
2018-03-27T05:33:46.075Z,38.17
2018-03-27T05:36:13.669Z,37.63
2018-03-27T05:38:41.620Z,40.90
2018-03-27T05:41:09.191Z,37.63
2018-03-27T05:43:37.084Z,38.47
2018-03-27T05:46:05.492Z,38.70
2018-03-27T05:48:33.098Z,35.90
2018-03-27T05:51:00.699Z,32.20
2018-03-27T05:53:28.272Z,31.53
2018-03-27T05:55:55.919Z,33.03
2018-03-27T05:58:23.503Z,31.43
2018-03-27T06:00:51.715Z,29.97
2018-03-27T06:03:19.338Z,30.50
2018-03-27T06:05:47.351Z,31.83
2018-03-27T06:08:15.745Z,33.87
2018-03-27T06:10:44.128Z,30.73
2018-03-27T06:13:11.941Z,32.77
2018-03-27T06:15:39.533Z,31.77
2018-03-27T06:18:08.268Z,33.53
2018-03-27T06:20:35.875Z,32.13
2018-03-27T06:23:03.471Z,31.43
2018-03-27T06:25:31.066Z,32.63
2018-03-27T06:28:00.156Z,31.23
2018-03-27T06:30:28.397Z,31.40
2018-03-27T06:32:56.017Z,31.33
2018-03-27T06:35:23.839Z,33.33
2018-03-27T06:37:51.461Z,33.37
2018-03-27T06:40:19.826Z,35.27
2018-03-27T06:42:47.804Z,34.40
2018-03-27T06:45:16.137Z,31.27
2018-03-27T06:47:44.148Z,30.53
2018-03-27T06:50:11.775Z,30.33
2018-03-27T06:52:39.406Z,30.67
2018-03-27T06:55:07.021Z,31.50
2018-03-27T06:57:34.616Z,31.53
2018-03-27T07:00:02.895Z,32.20
2018-03-27T07:02:30.483Z,32.80
2018-03-27T07:04:58.754Z,31.80
2018-03-27T07:07:26.353Z,33.73
2018-03-27T07:09:54.180Z,33.60
2018-03-27T07:12:21.807Z,33.27
2018-03-27T07:14:49.615Z,31.33
2018-03-27T07:17:17.179Z,32.20
2018-03-27T07:19:45.237Z,32.17
2018-03-27T07:22:12.835Z,31.20
2018-03-27T07:24:40.786Z,31.90
2018-03-27T07:27:08.415Z,32.57
2018-03-27T07:29:36.024Z,30.77
2018-03-27T07:32:04.721Z,31.53
2018-03-27T07:34:33.096Z,30.70
2018-03-27T07:37:01.450Z,31.60
2018-03-27T07:39:29.058Z,29.43
2018-03-27T07:41:56.641Z,30.50
2018-03-27T07:44:24.205Z,28.77
2018-03-27T07:46:51.790Z,27.90
2018-03-27T07:49:19.450Z,26.67
2018-03-27T07:51:47.058Z,27.40
2018-03-27T07:54:15.642Z,26.10
2018-03-27T07:56:43.232Z,25.63
2018-03-27T07:59:11.072Z,25.37
2018-03-27T08:01:38.714Z,25.77
2018-03-27T08:04:07.070Z,27.23
2018-03-27T08:06:34.657Z,26.60
2018-03-27T08:09:03.025Z,25.83
2018-03-27T08:11:31.094Z,25.53
2018-03-27T08:13:59.454Z,24.83
2018-03-27T08:16:27.218Z,25.53
2018-03-27T08:18:54.946Z,25.20
2018-03-27T08:21:22.645Z,23.47
2018-03-27T08:23:50.240Z,25.10
2018-03-27T08:26:18.015Z,25.30
2018-03-27T08:28:46.059Z,25.87
2018-03-27T08:31:14.690Z,24.03
2018-03-27T08:33:42.293Z,24.70
2018-03-27T08:36:10.119Z,23.23
2018-03-27T08:38:37.689Z,23.20
2018-03-27T08:41:05.657Z,23.00
2018-03-27T08:43:34.074Z,22.93
2018-03-27T08:46:02.633Z,22.53
2018-03-27T08:48:30.224Z,23.83
2018-03-27T08:50:58.559Z,22.83
2018-03-27T08:53:26.523Z,24.00
2018-03-27T08:55:54.129Z,22.57
2018-03-27T08:58:22.967Z,23.27
2018-03-27T09:00:50.572Z,21.93
2018-03-27T09:03:18.935Z,23.63
2018-03-27T09:05:46.830Z,22.67
2018-03-27T09:08:15.185Z,23.07
2018-03-27T09:10:43.211Z,21.63
2018-03-27T09:13:10.828Z,21.20
2018-03-27T09:15:39.175Z,20.97
2018-03-27T09:18:07.062Z,22.57
2018-03-27T09:20:35.466Z,21.70
2018-03-27T09:23:03.822Z,19.93
2018-03-27T09:25:32.283Z,20.70
2018-03-27T09:27:59.882Z,20.17
2018-03-27T09:30:28.518Z,20.30
2018-03-27T09:32:56.135Z,19.97
2018-03-27T09:35:23.778Z,21.10
2018-03-27T09:37:52.529Z,19.90
2018-03-27T09:40:20.119Z,19.97
2018-03-27T09:42:48.898Z,19.93
2018-03-27T09:45:16.531Z,26.83
2018-03-27T09:47:44.129Z,18.03
2018-03-27T09:50:12.827Z,16.77
2018-03-27T09:52:40.426Z,16.93
2018-03-27T09:55:08.025Z,17.33
2018-03-27T09:57:35.596Z,16.73
2018-03-27T10:00:04.321Z,17.97
2018-03-27T10:02:31.914Z,16.77
2018-03-27T10:04:59.515Z,15.93
2018-03-27T10:07:28.365Z,16.10
2018-03-27T10:09:55.953Z,15.60
2018-03-27T10:12:24.535Z,15.80
2018-03-27T10:14:52.895Z,12.50
2018-03-27T10:17:20.488Z,14.13
2018-03-27T10:19:48.138Z,14.03
2018-03-27T10:22:16.486Z,14.20
2018-03-27T10:24:44.481Z,14.87
2018-03-27T10:27:12.857Z,14.80
2018-03-27T10:29:41.211Z,14.37
2018-03-27T10:32:09.014Z,14.07
2018-03-27T10:34:37.372Z,43.43
2018-03-27T10:37:05.380Z,14.87
2018-03-27T10:39:32.977Z,14.73
2018-03-27T10:42:00.555Z,13.57
2018-03-27T10:44:28.177Z,12.97
2018-03-27T10:46:55.777Z,12.50
2018-03-27T10:49:23.379Z,12.57
2018-03-27T10:51:50.967Z,11.97
2018-03-27T10:54:18.573Z,10.83
2018-03-27T10:56:46.926Z,11.03
2018-03-27T10:59:15.422Z,10.17
2018-03-27T11:01:43.018Z,10.73
2018-03-27T11:04:10.833Z,9.07
2018-03-27T11:06:38.428Z,10.50
2018-03-27T11:09:06.802Z,10.47
2018-03-27T11:11:35.306Z,10.70
2018-03-27T11:14:02.908Z,10.83
2018-03-27T11:16:30.750Z,11.40
2018-03-27T11:18:59.144Z,11.63
2018-03-27T11:21:26.751Z,11.40
2018-03-27T11:23:54.354Z,10.83
2018-03-27T11:26:21.955Z,11.43
2018-03-27T11:28:50.656Z,11.30
2018-03-27T11:31:18.992Z,10.43
2018-03-27T11:33:46.594Z,9.97
2018-03-27T11:36:15.349Z,10.87
2018-03-27T11:38:42.930Z,10.10
2018-03-27T11:41:11.563Z,10.17
2018-03-27T11:43:39.133Z,9.40
2018-03-27T11:46:06.741Z,10.30
2018-03-27T11:48:35.545Z,9.97
2018-03-27T11:51:03.120Z,9.20
2018-03-27T11:53:31.128Z,9.07
2018-03-27T11:55:58.722Z,9.77
2018-03-27T11:58:26.422Z,10.23
2018-03-27T12:00:54.017Z,9.90
2018-03-27T12:03:21.955Z,10.57
2018-03-27T12:05:49.611Z,11.87
2018-03-27T12:08:17.184Z,10.60
2018-03-27T12:10:44.787Z,11.70
2018-03-27T12:13:12.385Z,10.93
2018-03-27T12:15:39.996Z,10.57
2018-03-27T12:18:08.355Z,11.23
2018-03-27T12:20:36.011Z,10.87
2018-03-27T12:23:03.569Z,11.80
2018-03-27T12:25:31.508Z,11.00
2018-03-27T12:27:59.081Z,11.50
2018-03-27T12:30:26.939Z,11.80
2018-03-27T12:32:54.519Z,11.53
2018-03-27T12:35:23.323Z,11.37
2018-03-27T12:37:51.194Z,11.90
2018-03-27T12:40:18.810Z,11.80
2018-03-27T12:42:46.923Z,12.73
2018-03-27T12:45:14.513Z,12.13
2018-03-27T12:47:42.877Z,11.73
2018-03-27T12:50:10.499Z,12.17
2018-03-27T12:52:38.088Z,12.20
2018-03-27T12:55:05.685Z,12.33
2018-03-27T12:57:33.285Z,12.87
2018-03-27T13:00:00.879Z,12.30
2018-03-27T13:02:29.284Z,13.53
2018-03-27T13:04:57.186Z,12.87
2018-03-27T13:07:24.788Z,12.00
2018-03-27T13:09:53.149Z,12.23
2018-03-27T13:12:20.767Z,13.30
2018-03-27T13:14:48.354Z,14.07
2018-03-27T13:17:15.952Z,13.73
2018-03-27T13:19:45.139Z,14.20
2018-03-27T13:22:13.541Z,12.10
2018-03-27T13:24:41.133Z,13.17
2018-03-27T13:27:08.773Z,13.37
2018-03-27T13:29:36.393Z,14.20
2018-03-27T13:32:03.992Z,14.63
2018-03-27T13:34:31.604Z,16.27
2018-03-27T13:36:59.181Z,16.73
2018-03-27T13:39:27.735Z,15.63
2018-03-27T13:41:55.320Z,16.67
2018-03-27T13:44:23.682Z,15.47
2018-03-27T13:46:51.305Z,16.60
2018-03-27T13:49:18.923Z,15.73
2018-03-27T13:51:47.317Z,15.50
2018-03-27T13:54:14.920Z,16.63
2018-03-27T13:56:42.514Z,18.10
2018-03-27T13:59:10.236Z,18.33
2018-03-27T14:01:38.081Z,18.77
2018-03-27T14:04:05.659Z,17.73
2018-03-27T14:06:33.460Z,18.37
2018-03-27T14:09:01.052Z,20.33
2018-03-27T14:11:29.395Z,18.87
2018-03-27T14:13:57.010Z,18.63
2018-03-27T14:16:24.613Z,18.73
2018-03-27T14:18:52.250Z,18.83
2018-03-27T14:21:19.816Z,18.83
2018-03-27T14:23:47.895Z,19.40
2018-03-27T14:26:15.467Z,20.60
2018-03-27T14:28:43.315Z,19.07
2018-03-27T14:31:10.895Z,19.87
2018-03-27T14:33:39.665Z,21.07
2018-03-27T14:36:07.294Z,21.80
2018-03-27T14:38:34.887Z,22.57
2018-03-27T14:41:02.544Z,20.13
2018-03-27T14:43:30.136Z,21.37
2018-03-27T14:45:58.617Z,20.27
2018-03-27T14:48:26.966Z,21.33
2018-03-27T14:50:54.925Z,21.93
2018-03-27T14:53:22.544Z,22.00
2018-03-27T14:55:50.136Z,20.40
2018-03-27T14:58:17.758Z,21.23
2018-03-27T15:00:46.091Z,22.77
2018-03-27T15:03:13.862Z,20.73
2018-03-27T15:05:41.446Z,21.87
2018-03-27T15:08:10.238Z,20.13
2018-03-27T15:10:39.053Z,21.80
2018-03-27T15:13:06.654Z,19.43
2018-03-27T15:15:34.670Z,19.77
2018-03-27T15:18:02.284Z,19.83
2018-03-27T15:20:30.138Z,20.00
2018-03-27T15:22:57.727Z,19.77
2018-03-27T15:25:25.610Z,18.83
2018-03-27T15:27:54.490Z,18.40
2018-03-27T15:30:22.875Z,18.10
2018-03-27T15:32:51.255Z,20.30
2018-03-27T15:35:19.604Z,21.97
2018-03-27T15:37:47.174Z,17.47
2018-03-27T15:40:14.764Z,17.60
2018-03-27T15:42:42.336Z,16.90
2018-03-27T15:45:10.474Z,15.57
2018-03-27T15:47:38.076Z,16.90
2018-03-27T15:50:05.836Z,18.30
2018-03-27T15:52:33.429Z,19.17
2018-03-27T15:55:01.647Z,17.83
2018-03-27T15:57:30.074Z,19.33
2018-03-27T15:59:57.670Z,19.93
2018-03-27T16:02:25.313Z,18.37
2018-03-27T16:04:52.894Z,19.23
2018-03-27T16:07:21.262Z,20.70
2018-03-27T16:09:48.833Z,21.77
2018-03-27T16:12:17.209Z,20.97
2018-03-27T16:14:44.809Z,19.47
2018-03-27T16:17:12.386Z,21.50
2018-03-27T16:19:40.025Z,20.67
2018-03-27T16:22:07.650Z,22.27
2018-03-27T16:24:36.539Z,23.40
2018-03-27T16:27:04.200Z,18.67
2018-03-27T16:29:32.334Z,17.60
2018-03-27T16:32:00.013Z,15.97
2018-03-27T16:34:28.334Z,15.23
2018-03-27T16:36:57.302Z,16.47
2018-03-27T16:39:24.918Z,16.27
2018-03-27T16:41:52.509Z,15.60
2018-03-27T16:44:20.174Z,15.30
2018-03-27T16:46:47.824Z,15.83
2018-03-27T16:49:15.771Z,14.77
2018-03-27T16:51:43.334Z,15.90
2018-03-27T16:54:11.303Z,15.77
2018-03-27T16:56:38.913Z,16.37
2018-03-27T16:59:07.284Z,19.20
2018-03-27T17:01:36.156Z,20.80
2018-03-27T17:04:03.783Z,19.77
2018-03-27T17:06:31.776Z,19.73
2018-03-27T17:08:59.393Z,20.27
2018-03-27T17:11:27.006Z,18.83
2018-03-27T17:13:54.641Z,17.83
2018-03-27T17:16:22.272Z,12.83
2018-03-27T17:18:50.442Z,12.27
2018-03-27T17:21:18.826Z,11.23
2018-03-27T17:23:46.643Z,12.17
2018-03-27T17:26:14.308Z,10.70
2018-03-27T17:28:41.911Z,11.73
2018-03-27T17:31:10.734Z,11.57
2018-03-27T17:33:38.315Z,11.53
2018-03-27T17:36:06.676Z,12.50
2018-03-27T17:38:34.298Z,13.33
2018-03-27T17:41:01.937Z,11.83
2018-03-27T17:43:30.988Z,12.03
2018-03-27T17:45:58.582Z,11.97
2018-03-27T17:48:26.169Z,13.60
2018-03-27T17:50:55.017Z,12.77
2018-03-27T17:53:22.671Z,13.47
2018-03-27T17:55:50.873Z,13.53
2018-03-27T17:58:18.463Z,13.37
2018-03-27T18:00:46.476Z,14.37
2018-03-27T18:03:14.058Z,14.77
2018-03-27T18:05:41.651Z,14.97
2018-03-27T18:08:10.202Z,15.17
2018-03-27T18:10:38.506Z,16.60
2018-03-27T18:13:07.768Z,15.73
2018-03-27T18:15:36.298Z,16.17
2018-03-27T18:18:04.347Z,17.20
2018-03-27T18:20:32.024Z,18.37
2018-03-27T18:22:59.665Z,19.43
2018-03-27T18:25:28.129Z,17.23
2018-03-27T18:27:56.188Z,21.53
2018-03-27T18:30:23.845Z,19.40
2018-03-27T18:32:52.087Z,18.53
2018-03-27T18:35:19.817Z,19.83
2018-03-27T18:37:48.148Z,19.53
2018-03-27T18:40:16.136Z,19.73
2018-03-27T18:42:43.866Z,21.03
2018-03-27T18:45:12.289Z,22.20
2018-03-27T18:47:39.982Z,23.30
2018-03-27T18:50:08.365Z,24.23
2018-03-27T18:52:36.648Z,24.83
2018-03-27T18:55:04.272Z,25.50
2018-03-27T18:57:32.296Z,26.50
2018-03-27T18:59:59.965Z,26.20
2018-03-27T19:02:27.548Z,27.03
2018-03-27T19:04:55.927Z,27.47
2018-03-27T19:07:24.511Z,27.53
2018-03-27T19:09:52.088Z,28.40
2018-03-27T19:12:20.977Z,30.10
2018-03-27T19:14:49.322Z,29.67
2018-03-27T19:17:17.225Z,28.60
2018-03-27T19:19:46.108Z,29.23
2018-03-27T19:22:13.717Z,30.80
2018-03-27T19:24:41.997Z,32.53
2018-03-27T19:27:09.609Z,32.53
2018-03-27T19:29:37.998Z,33.10
2018-03-27T19:32:06.759Z,33.63
2018-03-27T19:34:34.331Z,32.27
2018-03-27T19:37:02.606Z,33.50
2018-03-27T19:39:31.383Z,34.17
2018-03-27T19:41:58.978Z,35.20
2018-03-27T19:44:27.711Z,36.53
2018-03-27T19:46:55.310Z,38.77
2018-03-27T19:49:23.654Z,40.97
2018-03-27T19:51:51.613Z,35.77
2018-03-27T19:54:19.212Z,36.93
2018-03-27T19:56:47.201Z,37.63
2018-03-27T19:59:14.801Z,38.93
2018-03-27T20:01:42.964Z,38.67
2018-03-27T20:04:10.592Z,37.20
2018-03-27T20:06:38.937Z,38.30
2018-03-27T20:09:06.841Z,38.00
2018-03-27T20:11:34.421Z,38.10
2018-03-27T20:14:02.433Z,37.90
2018-03-27T20:16:30.026Z,35.90
2018-03-27T20:18:58.397Z,35.80
2018-03-27T20:21:26.958Z,39.00
2018-03-27T20:23:54.541Z,38.30
2018-03-27T20:26:23.413Z,36.53
2018-03-27T20:28:51.047Z,36.70
2018-03-27T20:31:18.636Z,38.13
2018-03-27T20:33:47.296Z,36.20
2018-03-27T20:36:14.908Z,35.93
2018-03-27T20:38:42.802Z,35.37
2018-03-27T20:41:10.404Z,36.67
2018-03-27T20:43:38.679Z,42.60
2018-03-27T20:46:07.400Z,37.10
2018-03-27T20:48:34.978Z,37.63
2018-03-27T20:51:03.122Z,38.37
2018-03-27T20:53:31.493Z,37.23
2018-03-27T20:55:59.835Z,37.73
2018-03-27T20:58:27.624Z,36.10
2018-03-27T21:00:56.023Z,34.77
2018-03-27T21:03:24.396Z,35.97
2018-03-27T21:05:52.802Z,35.30
2018-03-27T21:08:20.384Z,37.27
2018-03-27T21:10:48.459Z,35.73
2018-03-27T21:13:16.020Z,33.97
2018-03-27T21:15:44.190Z,35.50
2018-03-27T21:18:11.781Z,36.67
2018-03-27T21:20:39.406Z,37.53
2018-03-27T21:23:07.040Z,34.23
2018-03-27T21:25:34.624Z,35.13
2018-03-27T21:28:02.239Z,36.40
2018-03-27T21:30:30.583Z,38.53
2018-03-27T21:32:58.266Z,36.80
2018-03-27T21:35:26.648Z,37.17
2018-03-27T21:37:55.027Z,37.47
2018-03-27T21:40:23.983Z,38.60
2018-03-27T21:42:52.367Z,37.80
2018-03-27T21:45:19.950Z,37.60
2018-03-27T21:47:47.569Z,38.27
2018-03-27T21:50:15.140Z,36.07
2018-03-27T21:52:42.746Z,37.83
2018-03-27T21:55:11.106Z,36.27
2018-03-27T21:57:39.300Z,38.37
2018-03-27T22:00:08.807Z,39.57
2018-03-27T22:02:37.168Z,37.77
2018-03-27T22:05:05.539Z,38.10
2018-03-27T22:07:33.173Z,39.10
2018-03-27T22:10:00.769Z,38.53
2018-03-27T22:12:29.453Z,39.40
2018-03-27T22:14:57.858Z,41.03
2018-03-27T22:17:25.423Z,38.23
2018-03-27T22:19:53.043Z,37.83
2018-03-27T22:22:21.425Z,38.33
2018-03-27T22:24:49.089Z,37.10
2018-03-27T22:27:16.682Z,36.63
2018-03-27T22:29:45.236Z,37.27
2018-03-27T22:32:14.238Z,38.33
2018-03-27T22:34:42.612Z,36.33
2018-03-27T22:37:10.975Z,36.53
2018-03-27T22:39:38.607Z,34.47
2018-03-27T22:42:06.361Z,36.10
2018-03-27T22:44:34.385Z,36.57
2018-03-27T22:47:02.753Z,36.47
2018-03-27T22:49:30.558Z,35.17
2018-03-27T22:51:58.157Z,35.87
2018-03-27T22:54:25.765Z,35.33
2018-03-27T22:56:53.401Z,34.97
2018-03-27T22:59:21.759Z,33.90
2018-03-27T23:01:49.572Z,37.67
2018-03-27T23:04:17.163Z,35.50
2018-03-27T23:06:45.173Z,37.10
2018-03-27T23:09:13.564Z,42.20
2018-03-27T23:11:42.020Z,45.63
2018-03-27T23:14:09.848Z,41.90
2018-03-27T23:16:37.454Z,41.03
2018-03-27T23:19:06.113Z,43.40
2018-03-27T23:21:33.681Z,42.97
2018-03-27T23:24:01.261Z,41.20
2018-03-27T23:26:30.161Z,42.53
2018-03-27T23:28:58.567Z,37.83
2018-03-27T23:31:26.901Z,37.23
2018-03-27T23:33:54.518Z,37.00
2018-03-27T23:36:22.101Z,35.73
2018-03-27T23:38:50.274Z,34.93
2018-03-27T23:41:17.930Z,36.57
2018-03-27T23:43:45.940Z,38.50
2018-03-27T23:46:14.321Z,37.30
2018-03-27T23:48:42.679Z,40.13
2018-03-27T23:51:10.580Z,37.73
2018-03-27T23:53:38.185Z,36.47
2018-03-27T23:56:06.168Z,33.30
2018-03-27T23:58:34.235Z,36.60
